Time;durP1;ratioP1;P1;durP2;ratioP2;P2;SDS_P1;SDS_P2;PMS_P1;PMS_P2;Temp;Humidity;BMP_temperature;BMP_pressure;BME280_temperature;BME280_humidity;BME280_pressure;Samples;Min_cycle;Max_cycle;Signal;HPM_P1;HPM_P2
2021/12/20 00:02:10;;;;;;;22.63;12.67;;;8.60;99.90;;;;;;5054195;28;20443;-79
2021/12/20 00:04:36;;;;;;;18.00;9.73;;;8.50;99.90;;;;;;5054466;28;20480;-79
2021/12/20 00:07:03;;;;;;;19.43;8.77;;;8.50;99.90;;;;;;5038002;28;20461;-81
2021/12/20 00:09:29;;;;;;;16.77;9.20;;;8.50;99.90;;;;;;5057625;28;20087;-80
2021/12/20 00:11:54;;;;;;;18.10;9.97;;;8.50;99.90;;;;;;5065200;28;20036;-80
2021/12/20 00:14:20;;;;;;;18.70;9.63;;;8.50;99.90;;;;;;5043675;28;20078;-79
2021/12/20 00:16:46;;;;;;;20.20;11.23;;;8.50;99.90;;;;;;5058412;28;20029;-80
2021/12/20 00:19:13;;;;;;;18.87;9.27;;;8.50;99.90;;;;;;5063372;28;20033;-79
2021/12/20 00:21:39;;;;;;;18.33;8.57;;;8.40;99.90;;;;;;5056209;28;20032;-80
2021/12/20 00:24:05;;;;;;;13.47;8.30;;;8.40;99.90;;;;;;5053744;28;20496;-81
2021/12/20 00:26:31;;;;;;;15.47;8.00;;;8.40;99.90;;;;;;5037645;28;20057;-81
2021/12/20 00:28:57;;;;;;;16.33;8.77;;;8.40;99.90;;;;;;5055333;28;20170;-80
2021/12/20 00:31:22;;;;;;;18.07;8.90;;;8.40;99.90;;;;;;5037594;28;20040;-79
2021/12/20 00:33:48;;;;;;;23.17;10.27;;;8.40;99.90;;;;;;5055024;28;20059;-81
2021/12/20 00:36:21;;;;;;;14.67;7.50;;;8.40;99.90;;;;;;5053862;28;20040;-79
2021/12/20 00:41:31;;;;;;;16.00;8.77;;;8.40;99.90;;;;;;5055205;28;20114;-80
2021/12/20 00:43:59;;;;;;;14.37;7.70;;;8.40;99.90;;;;;;5054077;28;20489;-79
2021/12/20 00:46:25;;;;;;;16.03;8.27;;;8.40;99.90;;;;;;5053206;28;20393;-80
2021/12/20 00:48:51;;;;;;;18.27;7.47;;;8.30;99.90;;;;;;5036512;28;20036;-79
2021/12/20 00:51:16;;;;;;;12.53;7.47;;;8.30;99.90;;;;;;5037485;28;20033;-80
2021/12/20 00:53:42;;;;;;;16.80;8.33;;;8.30;99.90;;;;;;5054328;28;20028;-80
2021/12/20 00:56:08;;;;;;;16.40;7.97;;;8.30;99.90;;;;;;5053102;28;20029;-79
2021/12/20 00:58:34;;;;;;;14.00;7.43;;;8.40;99.90;;;;;;5053608;28;20044;-79
2021/12/20 01:00:59;;;;;;;18.60;8.03;;;8.40;99.90;;;;;;5036607;28;20044;-80
2021/12/20 01:03:27;;;;;;;13.80;7.77;;;8.50;99.90;;;;;;5052605;28;20491;-81
2021/12/20 01:05:53;;;;;;;16.13;7.73;;;8.40;99.90;;;;;;5053314;28;20021;-81
2021/12/20 01:08:20;;;;;;;13.73;7.13;;;8.40;99.90;;;;;;5054389;28;20025;-81
2021/12/20 01:10:51;;;;;;;15.70;7.00;;;8.40;99.90;;;;;;5054367;28;20036;-79
2021/12/20 01:13:19;;;;;;;17.43;8.20;;;8.40;99.90;;;;;;5037179;28;20355;-79
2021/12/20 01:15:49;;;;;;;13.93;5.83;;;8.40;99.90;;;;;;5055691;28;20458;-80
2021/12/20 01:18:15;;;;;;;10.17;5.50;;;8.40;99.90;;;;;;5057385;28;20025;-80
2021/12/20 01:20:41;;;;;;;11.20;5.73;;;8.30;99.90;;;;;;5039443;28;20465;-81
2021/12/20 01:23:08;;;;;;;14.03;6.00;;;8.40;99.90;;;;;;5055181;28;20029;-80
2021/12/20 01:25:34;;;;;;;11.87;5.60;;;8.30;99.90;;;;;;5054396;28;20060;-79
2021/12/20 01:28:00;;;;;;;11.33;4.83;;;8.30;99.90;;;;;;5053894;28;20437;-79
2021/12/20 01:30:26;;;;;;;12.07;4.87;;;8.30;99.90;;;;;;5037031;28;20028;-77
2021/12/20 01:32:52;;;;;;;13.83;5.23;;;8.30;99.90;;;;;;5036079;28;20128;-81
2021/12/20 01:35:20;;;;;;;11.47;5.50;;;8.30;99.90;;;;;;5052636;28;20025;-79
2021/12/20 01:37:46;;;;;;;9.90;4.47;;;8.30;99.90;;;;;;5054310;28;20119;-79
2021/12/20 01:40:15;;;;;;;8.60;3.90;;;8.40;99.90;;;;;;5052418;28;20067;-80
2021/12/20 01:42:42;;;;;;;13.60;4.23;;;8.30;99.90;;;;;;5035945;28;20029;-81
2021/12/20 01:45:14;;;;;;;10.73;4.20;;;8.30;99.90;;;;;;5052406;28;20031;-80
2021/12/20 01:47:43;;;;;;;17.38;4.80;;;8.30;99.90;;;;;;5048123;28;20076;-81
2021/12/20 01:50:18;;;;;;;12.60;3.90;;;8.30;99.90;;;;;;5052662;28;20071;-80
2021/12/20 01:52:44;;;;;;;14.20;4.17;;;8.30;99.90;;;;;;5054168;28;20036;-80
2021/12/20 01:55:21;;;;;;;11.00;2.90;;;8.30;99.90;;;;;;5052700;28;20492;-80
2021/12/20 01:57:48;;;;;;;11.47;3.37;;;8.20;99.90;;;;;;5052620;28;20079;-79
2021/12/20 02:00:21;;;;;;;6.93;3.20;;;8.20;99.90;;;;;;5053569;28;20058;-80
2021/12/20 02:02:47;;;;;;;10.23;3.75;;;8.20;99.90;;;;;;5053808;28;20032;-81
2021/12/20 02:05:22;;;;;;;15.00;4.00;;;8.20;99.90;;;;;;5052014;28;20036;-80
2021/12/20 02:07:58;;;;;;;9.73;3.43;;;8.20;99.90;;;;;;5037184;28;20025;-80
2021/12/20 02:10:24;;;;;;;12.20;3.20;;;8.20;99.90;;;;;;5052694;28;20025;-79
2021/12/20 02:12:49;;;;;;;11.30;3.17;;;8.20;99.90;;;;;;5054035;28;20031;-78
2021/12/20 02:15:15;;;;;;;9.93;2.40;;;8.20;99.90;;;;;;5036904;28;20024;-81
2021/12/20 02:17:41;;;;;;;9.70;2.93;;;8.20;99.90;;;;;;5057725;28;20021;-80
2021/12/20 02:20:08;;;;;;;12.90;3.17;;;8.20;99.90;;;;;;5040246;28;20427;-80
2021/12/20 02:22:34;;;;;;;15.60;3.00;;;8.10;99.90;;;;;;5056891;28;20522;-78
2021/12/20 02:25:00;;;;;;;11.93;3.07;;;8.10;99.90;;;;;;5057960;28;20032;-79
2021/12/20 02:27:26;;;;;;;10.27;2.30;;;8.20;99.90;;;;;;5042016;28;20039;-79
2021/12/20 02:30:06;;;;;;;14.77;2.67;;;8.20;99.90;;;;;;5040818;28;20029;-81
2021/12/20 02:38:35;;;;;;;17.30;2.20;;;8.20;99.90;;;;;;5062327;28;20129;-79
2021/12/20 02:41:13;;;;;;;13.00;2.00;;;8.20;99.90;;;;;;5058571;28;20040;-82
2021/12/20 02:43:43;;;;;;;13.13;2.43;;;8.20;99.90;;;;;;5069495;28;20108;-79
2021/12/20 02:46:27;;;;;;;11.27;1.97;;;8.20;99.90;;;;;;5058420;28;20071;-79
2021/12/20 02:48:53;;;;;;;10.50;2.07;;;8.20;99.90;;;;;;5055977;28;20049;-79
2021/12/20 02:51:18;;;;;;;8.20;1.93;;;8.20;99.90;;;;;;5056939;28;20029;-79
2021/12/20 02:53:44;;;;;;;8.63;1.73;;;8.20;99.90;;;;;;5055733;28;20366;-82
2021/12/20 02:56:10;;;;;;;10.90;2.00;;;8.30;99.90;;;;;;5056321;28;20029;-80
2021/12/20 02:58:35;;;;;;;10.73;2.10;;;8.20;99.90;;;;;;5057614;28;20085;-80
2021/12/20 03:01:01;;;;;;;13.97;2.53;;;8.20;99.90;;;;;;5057351;28;20048;-81
2021/12/20 03:03:27;;;;;;;15.27;2.63;;;8.20;99.90;;;;;;5039384;28;20032;-80
2021/12/20 03:05:53;;;;;;;11.73;1.90;;;8.20;99.90;;;;;;5038839;28;20029;-79
2021/12/20 03:08:22;;;;;;;11.67;2.03;;;8.20;99.90;;;;;;5055361;28;20025;-81
2021/12/20 03:10:48;;;;;;;12.20;2.07;;;8.20;99.90;;;;;;5055542;28;20455;-79
2021/12/20 03:13:14;;;;;;;9.13;1.70;;;8.20;99.90;;;;;;5056380;28;20029;-79
2021/12/20 03:15:40;;;;;;;12.63;2.03;;;8.20;99.90;;;;;;5055543;28;20116;-80
2021/12/20 03:18:06;;;;;;;16.90;2.10;;;8.20;99.90;;;;;;5055307;28;20043;-80
2021/12/20 03:20:32;;;;;;;16.33;2.03;;;8.20;99.90;;;;;;5055142;28;20025;-80
2021/12/20 03:22:59;;;;;;;11.00;1.90;;;8.20;99.90;;;;;;5056938;28;20029;-78
2021/12/20 03:25:25;;;;;;;9.70;1.83;;;8.10;99.90;;;;;;5056631;28;20070;-79
2021/12/20 03:27:51;;;;;;;10.13;1.60;;;8.10;99.90;;;;;;5055436;28;20029;-79
2021/12/20 03:30:17;;;;;;;12.30;1.90;;;8.10;99.90;;;;;;5056049;28;20485;-79
2021/12/20 03:32:43;;;;;;;16.20;2.03;;;8.10;99.90;;;;;;5055091;28;20032;-79
2021/12/20 03:35:10;;;;;;;11.90;1.70;;;8.20;99.90;;;;;;5038250;28;20485;-80
2021/12/20 03:37:36;;;;;;;12.07;1.90;;;8.20;99.90;;;;;;5054836;28;20029;-80
2021/12/20 03:40:02;;;;;;;14.73;1.70;;;8.20;99.90;;;;;;5054767;28;20025;-81
2021/12/20 03:42:29;;;;;;;8.53;1.80;;;8.20;99.90;;;;;;5055106;28;20044;-80
2021/12/20 03:44:55;;;;;;;13.33;1.80;;;8.20;99.90;;;;;;5054860;28;20025;-80
2021/12/20 03:47:21;;;;;;;14.27;2.17;;;8.20;99.90;;;;;;5055409;28;20408;-80
2021/12/20 03:49:46;;;;;;;11.53;1.60;;;8.20;99.90;;;;;;5055055;28;20380;-80
2021/12/20 03:52:12;;;;;;;12.83;1.80;;;8.20;99.90;;;;;;5038270;28;20025;-81
2021/12/20 03:54:38;;;;;;;13.03;2.00;;;8.20;99.90;;;;;;5054876;28;20544;-79
2021/12/20 03:57:04;;;;;;;9.63;2.23;;;8.20;99.90;;;;;;5054614;28;20029;-80
2021/12/20 03:59:30;;;;;;;12.50;1.50;;;8.30;99.90;;;;;;5056206;28;20066;-79
2021/12/20 04:01:57;;;;;;;11.37;1.80;;;8.30;99.90;;;;;;5054695;28;20094;-80
2021/12/20 04:04:23;;;;;;;14.60;1.77;;;8.30;99.90;;;;;;5054648;28;20087;-79
2021/12/20 04:06:49;;;;;;;17.87;1.77;;;8.20;99.90;;;;;;5054525;28;20068;-81
2021/12/20 04:09:15;;;;;;;12.30;1.60;;;8.20;99.90;;;;;;5037541;28;20053;-79
2021/12/20 04:11:41;;;;;;;10.73;1.60;;;8.10;99.90;;;;;;5054207;28;20033;-80
2021/12/20 04:14:07;;;;;;;11.50;2.00;;;8.20;99.90;;;;;;5054199;28;20534;-79
2021/12/20 04:16:36;;;;;;;13.10;2.13;;;8.20;99.90;;;;;;5055037;28;20032;-79
2021/12/20 04:19:02;;;;;;;13.87;1.80;;;8.30;99.90;;;;;;5038660;28;20036;-80
2021/12/20 04:21:28;;;;;;;13.37;1.63;;;8.30;99.90;;;;;;5057688;28;20029;-80
2021/12/20 04:23:53;;;;;;;16.37;2.17;;;8.30;99.90;;;;;;5056908;28;20044;-78
2021/12/20 04:26:19;;;;;;;17.93;2.20;;;8.30;99.90;;;;;;5056542;28;20028;-80
2021/12/20 04:28:45;;;;;;;12.23;1.50;;;8.20;99.90;;;;;;5055319;28;20036;-80
2021/12/20 04:31:11;;;;;;;13.60;1.90;;;8.20;99.90;;;;;;5053990;28;20060;-81
2021/12/20 04:33:36;;;;;;;14.80;1.93;;;8.10;99.90;;;;;;5037327;28;20037;-80
2021/12/20 04:36:02;;;;;;;17.63;1.90;;;8.10;99.90;;;;;;5038064;28;20086;-80
2021/12/20 04:38:30;;;;;;;14.63;1.90;;;8.00;99.70;;;;;;5036302;28;20032;-78
2021/12/20 04:40:56;;;;;;;20.27;2.17;;;8.00;99.90;;;;;;5053506;28;20116;-80
2021/12/20 04:43:21;;;;;;;14.80;1.60;;;8.10;99.90;;;;;;5053678;28;20112;-79
2021/12/20 04:45:47;;;;;;;12.00;1.73;;;8.10;99.90;;;;;;5056822;28;20540;-81
2021/12/20 04:48:13;;;;;;;15.57;1.83;;;8.20;99.90;;;;;;5058068;28;20049;-82
2021/12/20 04:50:39;;;;;;;12.37;1.23;;;8.20;99.90;;;;;;5056303;28;20444;-80
2021/12/20 04:53:06;;;;;;;20.73;1.77;;;8.10;98.90;;;;;;5053490;28;20071;-79
2021/12/20 04:55:32;;;;;;;14.73;1.77;;;8.00;98.70;;;;;;5053856;28;20040;-79
2021/12/20 04:58:00;;;;;;;16.40;1.70;;;7.90;98.50;;;;;;5056560;28;20056;-80
2021/12/20 05:00:29;;;;;;;10.37;1.10;;;7.90;99.10;;;;;;5059463;28;20021;-80
2021/12/20 05:02:57;;;;;;;17.60;1.83;;;7.90;99.60;;;;;;5057861;28;20456;-79
2021/12/20 05:05:23;;;;;;;14.17;1.80;;;8.00;99.80;;;;;;5040847;28;20082;-78
2021/12/20 05:07:50;;;;;;;14.43;1.33;;;8.10;99.90;;;;;;5060504;28;20104;-79
2021/12/20 05:10:33;;;;;;;12.50;1.90;;;8.10;99.80;;;;;;5037305;28;20420;-80
2021/12/20 05:13:02;;;;;;;17.50;1.60;;;8.10;99.40;;;;;;5054351;28;20029;-79
2021/12/20 05:15:28;;;;;;;16.87;2.27;;;8.00;99.70;;;;;;5055788;28;20056;-79
2021/12/20 05:17:55;;;;;;;20.40;1.87;;;8.10;99.70;;;;;;5054251;28;20079;-80
2021/12/20 05:20:21;;;;;;;15.67;1.40;;;8.10;99.80;;;;;;5054361;28;20031;-79
2021/12/20 05:22:48;;;;;;;17.83;2.20;;;8.10;99.50;;;;;;5055061;28;20064;-82
2021/12/20 05:25:14;;;;;;;11.77;1.77;;;8.10;99.60;;;;;;5039108;28;20032;-79
2021/12/20 05:27:40;;;;;;;15.93;1.87;;;8.10;99.40;;;;;;5054564;28;20443;-80
2021/12/20 05:30:07;;;;;;;20.53;1.70;;;8.10;99.50;;;;;;5056409;28;20029;-80
2021/12/20 05:32:34;;;;;;;18.00;2.23;;;8.10;99.60;;;;;;5055745;28;20124;-80
2021/12/20 05:35:00;;;;;;;15.43;1.83;;;8.10;99.50;;;;;;5056394;28;20064;-79
2021/12/20 05:37:26;;;;;;;14.60;1.73;;;8.00;99.40;;;;;;5055596;28;20083;-80
2021/12/20 05:39:52;;;;;;;15.60;1.80;;;8.00;99.20;;;;;;5057119;28;20036;-80
2021/12/20 05:42:17;;;;;;;18.43;1.90;;;8.00;99.10;;;;;;5041507;28;20360;-80
2021/12/20 05:44:43;;;;;;;20.57;1.60;;;7.90;98.40;;;;;;5040853;28;20025;-78
2021/12/20 05:47:10;;;;;;;16.73;1.73;;;7.70;97.80;;;;;;5057948;28;20511;-80
2021/12/20 05:49:36;;;;;;;16.00;1.67;;;7.70;98.50;;;;;;5040014;28;20091;-79
2021/12/20 05:52:05;;;;;;;16.57;1.43;;;7.80;98.80;;;;;;5039610;28;20505;-80
2021/12/20 05:54:31;;;;;;;15.40;2.43;;;7.80;98.80;;;;;;5057682;28;20060;-79
2021/12/20 05:56:58;;;;;;;16.27;1.80;;;7.80;99.10;;;;;;5058494;28;20100;-78
2021/12/20 05:59:23;;;;;;;15.40;1.30;;;7.90;99.00;;;;;;5058011;28;20033;-82
2021/12/20 06:01:49;;;;;;;17.23;1.50;;;7.90;99.10;;;;;;5057959;28;20516;-81
2021/12/20 06:04:15;;;;;;;12.80;1.50;;;8.00;99.20;;;;;;5038372;28;20025;-77
2021/12/20 06:06:41;;;;;;;10.17;1.13;;;8.00;99.30;;;;;;5035488;28;20381;-78
2021/12/20 06:09:06;;;;;;;17.93;1.67;;;8.00;99.10;;;;;;5052507;28;20036;-78
2021/12/20 06:11:32;;;;;;;15.43;1.30;;;8.00;99.10;;;;;;5053304;28;20162;-78
2021/12/20 06:13:58;;;;;;;15.07;2.60;;;8.10;99.30;;;;;;5035331;28;20457;-77
2021/12/20 06:16:24;;;;;;;15.93;2.17;;;8.00;98.60;;;;;;5052277;28;20060;-80
2021/12/20 06:18:51;;;;;;;18.27;2.17;;;8.00;98.90;;;;;;5035790;28;20522;-79
2021/12/20 06:21:18;;;;;;;14.10;1.97;;;8.00;99.10;;;;;;5051948;28;20033;-78
2021/12/20 06:23:44;;;;;;;21.67;1.97;;;8.00;99.00;;;;;;5052028;28;20029;-79
2021/12/20 06:26:10;;;;;;;14.80;2.27;;;8.00;99.20;;;;;;5035309;28;20043;-79
2021/12/20 06:28:35;;;;;;;18.10;2.00;;;8.00;99.20;;;;;;5052026;28;20037;-80
2021/12/20 06:31:01;;;;;;;16.40;1.67;;;8.00;99.30;;;;;;5035268;28;20361;-80
2021/12/20 06:33:27;;;;;;;17.00;1.80;;;8.00;99.20;;;;;;5035499;28;20453;-80
2021/12/20 06:35:53;;;;;;;17.77;2.00;;;7.90;99.00;;;;;;5035729;28;20488;-78
2021/12/20 06:38:21;;;;;;;14.67;1.73;;;7.90;99.20;;;;;;5051989;28;20068;-79
2021/12/20 06:40:48;;;;;;;17.33;2.27;;;7.80;99.20;;;;;;5051635;28;20031;-79
2021/12/20 06:43:13;;;;;;;16.77;1.77;;;7.80;99.50;;;;;;5035465;28;20037;-79
2021/12/20 06:45:39;;;;;;;22.93;2.90;;;7.80;99.30;;;;;;5051668;28;20454;-79
2021/12/20 06:48:05;;;;;;;15.23;2.33;;;7.80;99.30;;;;;;5051696;28;20076;-79
2021/12/20 06:50:31;;;;;;;23.73;2.30;;;7.80;99.40;;;;;;5051690;28;20021;-81
2021/12/20 06:52:57;;;;;;;17.77;2.47;;;7.80;99.50;;;;;;5051706;28;20066;-80
2021/12/20 06:55:23;;;;;;;15.30;1.67;;;7.90;99.50;;;;;;5052139;28;20526;-81
2021/12/20 06:57:49;;;;;;;23.07;2.80;;;7.90;99.50;;;;;;5053548;28;20084;-80
2021/12/20 07:00:15;;;;;;;16.83;1.73;;;7.90;99.60;;;;;;5035890;28;20458;-81
2021/12/20 07:02:41;;;;;;;16.07;1.73;;;7.90;99.70;;;;;;5039050;28;20120;-80
2021/12/20 07:05:08;;;;;;;17.93;2.13;;;7.90;99.70;;;;;;5039948;28;20120;-80
2021/12/20 07:07:35;;;;;;;15.37;1.77;;;8.00;99.70;;;;;;5055620;28;20029;-80
2021/12/20 07:10:05;;;;;;;14.03;1.70;;;7.90;99.70;;;;;;5056366;28;20408;-80
2021/12/20 07:12:34;;;;;;;15.33;1.70;;;8.00;99.70;;;;;;5039446;28;20488;-82
2021/12/20 07:15:00;;;;;;;16.73;2.17;;;8.00;99.60;;;;;;5040199;28;20057;-80
2021/12/20 07:17:26;;;;;;;18.97;1.97;;;8.00;99.50;;;;;;5055551;28;20050;-80
2021/12/20 07:19:51;;;;;;;15.47;1.50;;;8.00;99.60;;;;;;5055426;28;20075;-80
2021/12/20 07:22:17;;;;;;;26.63;2.60;;;8.00;99.60;;;;;;5038969;28;20040;-79
2021/12/20 07:24:42;;;;;;;17.60;2.10;;;7.90;99.10;;;;;;5055882;28;20112;-80
2021/12/20 07:27:10;;;;;;;16.40;2.10;;;7.90;99.20;;;;;;5038468;28;20032;-80
2021/12/20 07:29:37;;;;;;;19.80;2.17;;;7.90;99.30;;;;;;5055283;28;20021;-83
2021/12/20 07:32:03;;;;;;;21.13;1.87;;;7.90;99.20;;;;;;5056464;28;20097;-80
2021/12/20 07:34:29;;;;;;;20.97;2.20;;;7.80;99.20;;;;;;5054925;28;20028;-78
2021/12/20 07:36:54;;;;;;;21.23;2.60;;;7.90;99.20;;;;;;5055491;28;20033;-80
2021/12/20 07:39:20;;;;;;;21.60;2.90;;;7.90;99.10;;;;;;5055393;28;20037;-79
2021/12/20 07:41:46;;;;;;;20.53;2.47;;;7.80;99.30;;;;;;5038460;28;20079;-80
2021/12/20 07:44:12;;;;;;;15.17;1.60;;;7.90;99.30;;;;;;5038132;28;20481;-80
2021/12/20 07:46:38;;;;;;;18.03;1.97;;;7.90;99.30;;;;;;5055592;28;20114;-82
2021/12/20 07:49:04;;;;;;;23.53;2.00;;;7.90;99.30;;;;;;5054566;28;20061;-80
2021/12/20 07:51:29;;;;;;;24.20;2.70;;;7.90;99.10;;;;;;5054946;28;20067;-80
2021/12/20 07:53:55;;;;;;;26.10;2.33;;;7.80;99.30;;;;;;5054453;28;20493;-79
2021/12/20 07:56:20;;;;;;;18.57;2.10;;;7.90;99.50;;;;;;5038481;28;20098;-79
2021/12/20 07:58:46;;;;;;;17.97;1.80;;;8.00;99.50;;;;;;5055090;28;20433;-80
2021/12/20 08:01:12;;;;;;;22.23;4.47;;;8.00;99.30;;;;;;5055530;28;20036;-80
2021/12/20 08:03:39;;;;;;;24.43;3.97;;;8.00;98.90;;;;;;5037659;28;20099;-82
2021/12/20 08:06:05;;;;;;;20.97;2.50;;;7.90;98.90;;;;;;5055783;28;20032;-80
2021/12/20 08:08:31;;;;;;;23.00;2.97;;;7.90;98.90;;;;;;5037776;28;20052;-81
2021/12/20 08:10:57;;;;;;;21.93;3.17;;;7.90;98.90;;;;;;5054041;28;20029;-78
2021/12/20 08:13:23;;;;;;;14.47;2.60;;;7.90;98.70;;;;;;5054248;28;20037;-80
2021/12/20 08:15:48;;;;;;;21.43;3.40;;;7.70;97.80;;;;;;5055356;28;20450;-80
2021/12/20 08:18:14;;;;;;;20.27;3.87;;;7.70;98.30;;;;;;5054003;28;20461;-81
2021/12/20 08:20:40;;;;;;;22.57;4.83;;;7.70;99.10;;;;;;5054572;28;20028;-81
2021/12/20 08:23:05;;;;;;;20.70;5.47;;;7.80;99.20;;;;;;5054771;28;20034;-80
2021/12/20 08:25:31;;;;;;;22.70;5.00;;;7.90;99.30;;;;;;5037585;28;20158;-81
2021/12/20 08:27:58;;;;;;;21.70;4.93;;;8.00;98.80;;;;;;5053522;28;20017;-79
2021/12/20 08:30:24;;;;;;;19.87;3.83;;;7.80;98.00;;;;;;5053550;28;20031;-80
2021/12/20 08:32:50;;;;;;;22.17;5.23;;;7.70;97.30;;;;;;5036939;28;20123;-81
2021/12/20 08:35:17;;;;;;;23.73;4.47;;;7.70;97.50;;;;;;5037331;28;20048;-81
2021/12/20 08:37:43;;;;;;;30.03;8.80;;;7.70;97.60;;;;;;5037117;28;20117;-82
2021/12/20 08:40:12;;;;;;;32.70;10.40;;;7.70;98.10;;;;;;5053499;28;20029;-81
2021/12/20 08:42:39;;;;;;;27.43;7.73;;;7.80;98.60;;;;;;5054784;28;20049;-80
2021/12/20 08:45:07;;;;;;;29.00;7.83;;;8.00;98.70;;;;;;5053379;28;20029;-80
2021/12/20 08:47:33;;;;;;;31.07;11.27;;;8.00;97.90;;;;;;5054463;28;20021;-81
2021/12/20 08:50:00;;;;;;;25.97;7.57;;;8.10;98.60;;;;;;5054651;28;20021;-80
2021/12/20 08:52:27;;;;;;;31.47;11.03;;;8.20;98.40;;;;;;5053942;28;20036;-79
2021/12/20 08:54:53;;;;;;;25.70;7.53;;;8.20;98.30;;;;;;5054379;28;20028;-79
2021/12/20 08:57:18;;;;;;;29.10;8.27;;;8.20;97.40;;;;;;5053248;28;20378;-79
2021/12/20 08:59:44;;;;;;;35.47;12.90;;;8.20;97.70;;;;;;5054009;28;20428;-80
2021/12/20 09:02:10;;;;;;;20.77;5.87;;;8.20;97.80;;;;;;5057528;28;20445;-80
2021/12/20 09:04:37;;;;;;;27.47;9.37;;;8.30;97.40;;;;;;5055585;28;20476;-79
2021/12/20 09:07:04;;;;;;;21.40;5.80;;;8.30;97.20;;;;;;5055431;28;20032;-78
2021/12/20 09:09:36;;;;;;;20.53;6.40;;;8.30;96.90;;;;;;5053044;28;20033;-79
2021/12/20 09:12:02;;;;;;;29.10;8.63;;;8.20;96.70;;;;;;5037823;28;20033;-80
2021/12/20 09:14:28;;;;;;;40.00;12.57;;;8.30;97.00;;;;;;5036505;28;20116;-78
2021/12/20 09:16:54;;;;;;;30.17;6.47;;;8.40;97.10;;;;;;5036459;28;20155;-79
2021/12/20 09:19:19;;;;;;;24.30;5.30;;;8.50;96.90;;;;;;5035713;28;20025;-80
2021/12/20 09:21:48;;;;;;;27.53;4.67;;;8.40;95.30;;;;;;5036267;28;20024;-79
2021/12/20 09:24:14;;;;;;;28.87;5.30;;;8.20;94.70;;;;;;5052603;28;20128;-81
2021/12/20 09:26:39;;;;;;;31.77;5.57;;;8.10;95.00;;;;;;5036141;28;20041;-79
2021/12/20 09:29:05;;;;;;;26.50;4.23;;;8.10;94.90;;;;;;5036275;28;20040;-80
2021/12/20 09:31:31;;;;;;;24.67;4.60;;;8.40;94.60;;;;;;5054411;28;20069;-80
2021/12/20 09:33:58;;;;;;;17.37;4.00;;;8.50;94.20;;;;;;5036221;28;20033;-79
2021/12/20 09:36:29;;;;;;;25.33;5.07;;;8.70;94.20;;;;;;5036051;28;20033;-81
2021/12/20 09:38:55;;;;;;;20.03;5.27;;;9.10;94.00;;;;;;5053749;28;20523;-83
2021/12/20 09:41:59;;;;;;;25.00;5.93;;;9.70;93.40;;;;;;5036455;28;20056;-82
2021/12/20 09:44:08;;;;;;;39.50;16.40;;;10.00;91.50;;;;;;5053341;28;20094;-81
2021/12/20 09:46:34;;;;;;;29.37;10.83;;;10.60;91.90;;;;;;5054397;28;20052;-80
2021/12/20 09:49:00;;;;;;;25.47;9.67;;;11.10;90.50;;;;;;5052752;28;20053;-81
2021/12/20 09:51:26;;;;;;;34.07;11.57;;;11.50;88.30;;;;;;5052263;28;20124;-82
2021/12/20 09:53:55;;;;;;;28.80;7.50;;;11.70;83.40;;;;;;5052604;28;20116;-85
2021/12/20 09:56:24;;;;;;;28.47;10.27;;;11.70;80.60;;;;;;5054231;28;20030;-80
2021/12/20 09:58:53;;;;;;;29.93;4.37;;;11.80;80.60;;;;;;5052706;28;20021;-82
2021/12/20 10:01:20;;;;;;;33.20;9.20;;;11.60;74.90;;;;;;5053409;28;20029;-81
2021/12/20 10:03:46;;;;;;;28.80;7.17;;;11.40;78.70;;;;;;5053510;28;20029;-83
2021/12/20 10:06:13;;;;;;;23.70;6.53;;;11.30;78.50;;;;;;5053251;28;20021;-82
2021/12/20 10:08:49;;;;;;;27.77;7.57;;;11.30;78.60;;;;;;5054086;28;20040;-82
2021/12/20 10:11:29;;;;;;;23.90;4.67;;;11.50;78.50;;;;;;5038021;28;20060;-82
2021/12/20 10:14:13;;;;;;;21.70;5.10;;;11.60;74.80;;;;;;5055110;28;20035;-83
2021/12/20 10:16:41;;;;;;;23.93;5.67;;;11.60;76.30;;;;;;5054130;28;20017;-83
2021/12/20 10:19:29;;;;;;;27.13;5.53;;;11.50;76.00;;;;;;5054442;28;20032;-82
2021/12/20 10:21:58;;;;;;;34.13;6.03;;;11.40;74.50;;;;;;5052015;28;20174;-86
2021/12/20 10:24:35;;;;;;;23.27;4.37;;;11.20;74.70;;;;;;5052840;28;20031;-82
2021/12/20 10:27:01;;;;;;;30.03;5.30;;;11.20;75.40;;;;;;5053184;28;20061;-83
2021/12/20 10:29:28;;;;;;;23.63;4.60;;;11.10;75.50;;;;;;5053107;28;20029;-83
2021/12/20 10:31:56;;;;;;;28.20;7.17;;;10.90;76.00;;;;;;5039769;28;20048;-84
2021/12/20 10:34:33;;;;;;;28.77;8.10;;;10.70;77.30;;;;;;5055408;28;20060;-81
2021/12/20 10:37:00;;;;;;;35.53;7.07;;;11.00;79.10;;;;;;5055539;28;20029;-83
2021/12/20 10:39:41;;;;;;;30.13;8.43;;;11.30;76.80;;;;;;5038851;28;20028;-84
2021/12/20 10:42:24;;;;;;;25.57;6.17;;;11.50;77.00;;;;;;5057176;28;20469;-82
2021/12/20 10:45:11;;;;;;;27.77;6.38;;;11.80;76.10;;;;;;5056586;28;20112;-82
2021/12/20 10:47:38;;;;;;;26.83;5.40;;;11.90;74.10;;;;;;5055691;28;20040;-83
2021/12/20 10:50:29;;;;;;;32.20;5.77;;;11.80;72.70;;;;;;5039549;28;20036;-83
2021/12/20 10:53:17;;;;;;;26.47;5.00;;;11.50;72.40;;;;;;5056810;28;20087;-83
2021/12/20 10:55:49;;;;;;;24.00;5.67;;;11.20;72.90;;;;;;5056735;28;20036;-81
2021/12/20 10:58:28;;;;;;;31.50;5.07;;;11.10;73.20;;;;;;5057195;28;20082;-80
2021/12/20 11:04:11;;;;;;;29.53;7.23;;;10.90;76.40;;;;;;5056716;28;20401;-81
2021/12/20 11:09:19;;;;;;;33.20;6.33;;;11.20;73.00;;;;;;5057394;28;20033;-80
2021/12/20 11:11:49;;;;;;;29.97;8.77;;;11.10;73.00;;;;;;5057087;28;20024;-80
2021/12/20 11:14:18;;;;;;;37.93;10.83;;;11.20;74.60;;;;;;5055414;28;20456;-81
2021/12/20 11:16:49;;;;;;;36.43;9.63;;;11.70;74.30;;;;;;5056663;28;20174;-81
2021/12/20 11:19:25;;;;;;;33.20;7.37;;;11.80;70.30;;;;;;5055133;28;20049;-81
2021/12/20 11:21:52;;;;;;;28.63;6.37;;;11.90;71.30;;;;;;5055314;28;20024;-81
2021/12/20 11:24:21;;;;;;;27.53;6.33;;;11.70;69.60;;;;;;5056250;28;20064;-81
2021/12/20 11:26:48;;;;;;;31.60;4.97;;;11.30;70.10;;;;;;5054926;28;20086;-80
2021/12/20 11:29:14;;;;;;;24.57;6.47;;;11.00;70.40;;;;;;5055785;28;20465;-80
2021/12/20 11:31:40;;;;;;;29.30;5.73;;;10.90;71.70;;;;;;5054985;28;20061;-81
2021/12/20 11:34:06;;;;;;;23.00;6.57;;;11.20;71.90;;;;;;5056174;28;20028;-81
2021/12/20 11:36:32;;;;;;;27.70;5.57;;;11.00;72.10;;;;;;5054531;28;20036;-79
2021/12/20 11:38:58;;;;;;;27.53;6.70;;;11.00;72.30;;;;;;5054837;28;20032;-79
2021/12/20 11:41:28;;;;;;;29.77;7.00;;;11.00;72.00;;;;;;5055903;28;20033;-79
2021/12/20 11:43:58;;;;;;;27.93;5.23;;;11.10;72.00;;;;;;5054509;28;20044;-80
2021/12/20 11:46:32;;;;;;;37.83;14.30;;;11.00;70.90;;;;;;5056419;28;20093;-80
2021/12/20 11:48:59;;;;;;;27.47;11.60;;;11.30;74.00;;;;;;5055438;28;20049;-79
2021/12/20 11:51:24;;;;;;;27.80;8.17;;;11.40;73.60;;;;;;5037641;28;20033;-80
2021/12/20 11:53:50;;;;;;;31.53;8.27;;;11.20;70.80;;;;;;5037576;28;20083;-80
2021/12/20 11:56:16;;;;;;;30.30;10.30;;;10.80;70.10;;;;;;5054233;28;20090;-80
2021/12/20 11:58:47;;;;;;;31.83;7.33;;;10.60;71.30;;;;;;5054406;28;20056;-80
2021/12/20 12:01:18;;;;;;;30.57;9.03;;;10.30;70.10;;;;;;5056307;28;20033;-80
2021/12/20 12:03:57;;;;;;;39.83;15.27;;;9.90;71.10;;;;;;5055560;28;20029;-80
2021/12/20 12:06:25;;;;;;;33.67;10.30;;;9.80;73.50;;;;;;5054410;28;20024;-79
2021/12/20 12:08:52;;;;;;;42.40;18.63;;;9.70;73.30;;;;;;5054210;28;20017;-81
2021/12/20 12:11:19;;;;;;;36.33;13.07;;;9.60;75.70;;;;;;5054047;28;20044;-80
2021/12/20 12:13:59;;;;;;;38.77;15.10;;;9.60;75.10;;;;;;5055133;28;20025;-79
2021/12/20 12:16:55;;;;;;;38.43;13.43;;;9.70;76.50;;;;;;5054844;28;20166;-80
2021/12/20 12:19:51;;;;;;;38.93;15.43;;;9.90;77.30;;;;;;5053779;28;20021;-80
2021/12/20 12:22:26;;;;;;;37.53;15.23;;;10.00;79.60;;;;;;5055470;28;20075;-80
2021/12/20 12:24:54;;;;;;;29.17;8.60;;;10.40;79.90;;;;;;5053962;28;20036;-79
2021/12/20 12:27:22;;;;;;;25.97;8.83;;;10.50;75.10;;;;;;5055269;28;20033;-80
2021/12/20 12:30:13;;;;;;;36.37;11.53;;;10.30;74.10;;;;;;5053956;28;20457;-80
2021/12/20 12:32:48;;;;;;;31.83;8.17;;;10.10;73.80;;;;;;5055094;28;20033;-80
2021/12/20 12:35:51;;;;;;;29.93;8.20;;;10.20;73.70;;;;;;5055701;28;20063;-80
2021/12/20 12:38:33;;;;;;;32.55;11.27;;;10.20;74.40;;;;;;5055364;28;20060;-80
2021/12/20 12:41:05;;;;;;;32.88;11.27;;;9.90;74.30;;;;;;5054392;28;20032;-80
2021/12/20 12:43:54;;;;;;;30.70;8.30;;;9.80;75.10;;;;;;5054293;28;20477;-80
2021/12/20 12:46:36;;;;;;;33.60;7.90;;;9.60;74.80;;;;;;5053284;28;20160;-80
2021/12/20 12:49:22;;;;;;;39.03;10.90;;;9.40;74.50;;;;;;5054798;28;20045;-80
2021/12/20 12:51:58;;;;;;;44.93;12.40;;;9.30;77.20;;;;;;5054712;28;20542;-80
2021/12/20 12:54:33;;;;;;;34.60;8.87;;;9.30;78.50;;;;;;5053482;28;20037;-79
2021/12/20 12:57:11;;;;;;;39.50;9.60;;;9.20;77.20;;;;;;5054597;28;20028;-79
2021/12/20 12:59:56;;;;;;;43.77;12.87;;;9.20;78.60;;;;;;5053636;28;20595;-81
2021/12/20 13:02:33;;;;;;;42.33;15.30;;;9.20;79.20;;;;;;5053641;28;20131;-81
2021/12/20 13:05:25;;;;;;;37.73;10.40;;;9.30;79.90;;;;;;5052954;28;20031;-80